Terminal Aerodrome Forecast
Issued by NWS Mt. Holly, NJ

Current Version | Previous Version | Text Only | Print | Product List | Glossary On
Versions: 1 2 3 4 5 6 7 8 9 10 11 12 13
000
FTUS41 KPHI 301100
TAFRDG
TAF
KRDG 301134Z 3012/3112 VRB03KT P6SM FEW015 BKN040
     FM301400 16005KT P6SM SCT040 BKN100
     FM301700 18008KT P6SM BKN050
     FM310300 VRB03KT P6SM SCT050 BKN150
     FM310800 VRB03KT 4SM BR BKN020=

USA.gov is the U.S. government's official web portal to all federal, state and local government web resources and services.